Time;durP1;ratioP1;P1;durP2;ratioP2;P2;SDS_P1;SDS_P2;PMS_P1;PMS_P2;Temp;Humidity;BMP_temperature;BMP_pressure;BME280_temperature;BME280_humidity;BME280_pressure;Samples;Min_cycle;Max_cycle;Signal;HPM_P1;HPM_P2
2023/09/02 00:09:20;;;;;;;9.75;6.53;;;;;;;15.21;92.82;101841.22;20394453;29;20061;-61
2023/09/02 00:19:43;;;;;;;8.75;6.45;;;;;;;15.13;92.59;101844.94;20369846;29;20054;-61
2023/09/02 00:30:05;;;;;;;9.48;6.57;;;;;;;15.04;91.92;101840.03;20381238;29;20052;-62
2023/09/02 00:40:28;;;;;;;10.55;6.60;;;;;;;14.99;91.97;101847.16;20384100;29;20064;-62
2023/09/02 00:50:49;;;;;;;15.27;6.35;;;;;;;14.88;92.50;101835.34;20383452;29;20548;-62
2023/09/02 01:01:11;;;;;;;11.90;6.68;;;;;;;14.80;93.43;101846.00;20379428;29;20130;-62
2023/09/02 01:11:33;;;;;;;9.35;6.40;;;;;;;14.68;93.70;101848.13;20383718;29;20106;-62
2023/09/02 01:22:14;;;;;;;9.15;6.43;;;;;;;14.61;93.15;101844.03;20362967;29;20083;-62
2023/09/02 01:32:40;;;;;;;7.25;6.07;;;;;;;14.56;93.17;101861.56;20382155;29;20154;-62
2023/09/02 01:43:03;;;;;;;9.10;6.60;;;;;;;14.48;93.26;101876.53;20384836;29;20044;-61
2023/09/02 01:53:25;;;;;;;8.82;6.28;;;;;;;14.44;93.31;101874.91;20373005;29;20568;-62
2023/09/02 02:04:19;;;;;;;8.40;6.32;;;;;;;14.36;94.16;101895.97;20380146;29;20047;-61
2023/09/02 02:14:40;;;;;;;10.23;6.38;;;;;;;14.33;92.82;101893.47;20389925;28;20060;-61
2023/09/02 02:25:02;;;;;;;9.93;6.05;;;;;;;14.27;93.20;101895.38;20375486;29;20043;-62
2023/09/02 02:35:30;;;;;;;9.20;5.95;;;;;;;14.19;92.94;101898.19;20379522;29;20052;-62
2023/09/02 02:45:56;;;;;;;9.88;6.78;;;;;;;14.14;93.14;101880.06;20365368;29;20086;-61
2023/09/02 02:56:18;;;;;;;11.20;6.40;;;;;;;14.09;93.71;101878.47;20372310;29;20054;-61
2023/09/02 03:06:40;;;;;;;9.07;6.72;;;;;;;14.03;94.08;101905.53;20379764;29;20055;-59
2023/09/02 03:17:01;;;;;;;;;;;;;;;13.98;94.60;101896.13;20390049;29;20035;-61
2023/09/02 03:27:23;;;;;;;14.03;7.80;;;;;;;13.97;94.99;101894.44;20388358;29;19929;-61
2023/09/02 03:37:44;;;;;;;;;;;;;;;13.92;94.94;101911.91;20388408;29;20505;-61
2023/09/02 03:48:06;;;;;;;12.77;6.20;;;;;;;13.84;94.51;101909.50;20383733;29;19929;-62
2023/09/02 03:58:28;;;;;;;9.20;6.35;;;;;;;13.83;93.80;101919.97;20387682;29;20075;-62
2023/09/02 04:08:49;;;;;;;11.48;7.47;;;;;;;13.74;93.89;101930.59;20376444;29;20055;-61
2023/09/02 04:19:11;;;;;;;;;;;;;;;13.66;94.97;101932.56;20393278;28;20040;-62
2023/09/02 04:29:33;;;;;;;11.68;8.57;;;;;;;13.66;95.21;101929.97;20390022;29;19923;-62
2023/09/02 04:39:55;;;;;;;15.18;9.40;;;;;;;13.69;95.28;101937.66;20387946;29;20067;-61
2023/09/02 04:50:16;;;;;;;;;;;;;;;13.71;95.69;101934.16;20384693;29;20050;-62
2023/09/02 05:00:38;;;;;;;13.40;9.37;;;;;;;13.73;96.22;101957.53;20378760;29;19931;-59
2023/09/02 05:11:00;;;;;;;16.17;9.73;;;;;;;13.76;96.07;101965.25;20371995;29;20066;-59
2023/09/02 05:21:26;;;;;;;13.95;10.25;;;;;;;13.81;96.44;101973.78;20373546;29;20051;-61
2023/09/02 05:31:47;;;;;;;14.00;9.63;;;;;;;13.85;97.06;101991.03;20374286;29;20428;-62
2023/09/02 05:42:09;;;;;;;;;;;;;;;14.01;98.09;102000.16;20378850;29;20086;-61
2023/09/02 05:52:30;;;;;;;12.77;10.23;;;;;;;14.20;98.78;101983.19;20378215;29;19927;-61
2023/09/02 06:02:52;;;;;;;21.08;10.35;;;;;;;14.35;97.04;101998.44;20380729;29;20044;-62
2023/09/02 06:13:14;;;;;;;14.02;9.45;;;;;;;14.56;96.94;102013.47;20387225;29;20047;-61
2023/09/02 06:23:36;;;;;;;14.60;10.38;;;;;;;14.83;95.64;102017.06;20376206;28;20048;-61
2023/09/02 06:33:57;;;;;;;15.07;10.25;;;;;;;15.11;95.45;102029.25;20378645;29;20082;-62
2023/09/02 06:44:19;;;;;;;;;;;;;;;15.35;95.94;102030.28;20387677;29;20067;-62
2023/09/02 06:54:41;;;;;;;13.50;8.20;;;;;;;15.50;94.97;102034.19;20402309;28;19934;-61
2023/09/02 07:05:03;;;;;;;11.13;8.27;;;;;;;15.57;94.67;102046.16;20383087;29;20040;-62
2023/09/02 07:15:24;;;;;;;12.00;6.90;;;;;;;15.71;94.77;102052.66;20393108;28;20051;-61
2023/09/02 07:25:46;;;;;;;10.57;7.18;;;;;;;15.89;93.96;102056.44;20390131;29;20043;-61
2023/09/02 07:36:11;;;;;;;10.13;5.68;;;;;;;16.08;91.65;102078.44;20359252;29;20052;-61
2023/09/02 07:46:33;;;;;;;10.98;6.20;;;;;;;16.29;91.30;102087.31;20387125;29;20058;-61
2023/09/02 07:56:54;;;;;;;8.55;5.50;;;;;;;16.53;91.35;102097.84;20382398;29;20042;-62
2023/09/02 08:07:16;;;;;;;9.95;5.53;;;;;;;16.75;90.51;102092.72;20398757;28;20051;-63
2023/09/02 08:17:40;;;;;;;9.57;5.93;;;;;;;16.91;90.04;102092.13;20376996;29;20123;-62
2023/09/02 08:28:05;;;;;;;9.68;6.18;;;;;;;17.05;88.89;102121.25;20389758;29;20139;-62
2023/09/02 08:38:27;;;;;;;12.60;6.70;;;;;;;17.27;88.34;102123.94;20393405;29;20048;-62
2023/09/02 08:48:49;;;;;;;14.60;8.50;;;;;;;17.43;86.32;102145.16;20402703;29;20051;-62
2023/09/02 08:59:12;;;;;;;17.55;10.20;;;;;;;17.66;86.44;102142.56;20393820;28;20051;-61
2023/09/02 09:09:39;;;;;;;19.02;8.60;;;;;;;17.85;85.96;102120.84;20402492;28;20062;-61
2023/09/02 09:20:01;;;;;;;11.70;7.25;;;;;;;18.11;85.15;102140.78;20379631;29;20428;-62
2023/09/02 09:30:30;;;;;;;11.05;6.43;;;;;;;18.22;84.03;102156.91;20386439;29;20047;-61
2023/09/02 09:40:52;;;;;;;12.75;7.75;;;;;;;18.25;84.06;102163.78;20388999;28;20058;-62
2023/09/02 09:51:22;;;;;;;12.20;5.55;;;;;;;18.56;83.66;102180.88;20386952;29;20138;-62
2023/09/02 10:01:47;;;;;;;12.90;5.10;;;;;;;18.73;82.97;102188.88;20362310;29;20425;-62
2023/09/02 10:12:13;;;;;;;11.38;4.93;;;;;;;18.86;83.12;102190.06;20357464;29;20050;-62
2023/09/02 10:22:39;;;;;;;10.77;6.10;;;;;;;19.00;80.34;102199.97;20367316;29;20520;-62
2023/09/02 10:33:20;;;;;;;10.60;5.10;;;;;;;19.18;80.22;102195.69;20372337;29;20067;-62
2023/09/02 10:43:44;;;;;;;18.50;5.68;;;;;;;19.20;81.60;102204.34;20376877;29;20052;-62
2023/09/02 10:54:06;;;;;;;9.90;6.20;;;;;;;19.24;81.27;102206.78;20359300;29;20047;-62
2023/09/02 11:04:40;;;;;;;10.98;4.97;;;;;;;19.34;80.93;102208.13;20374457;29;20385;-62
2023/09/02 11:15:08;;;;;;;11.40;6.93;;;;;;;19.80;78.77;102217.41;20379398;29;20079;-62
2023/09/02 11:25:32;;;;;;;22.55;6.35;;;;;;;20.01;79.29;102225.16;20390981;28;20099;-62
2023/09/02 11:36:03;;;;;;;9.48;5.60;;;;;;;20.10;77.68;102221.25;20388103;29;20135;-62
2023/09/02 11:46:24;;;;;;;10.27;6.87;;;;;;;20.77;76.89;102222.31;20396738;29;20469;-62
2023/09/02 11:57:00;;;;;;;12.80;6.43;;;;;;;20.72;75.85;102216.44;20380148;29;20730;-62
2023/09/02 12:07:22;;;;;;;15.98;7.70;;;;;;;20.81;74.70;102226.50;20398026;29;20044;-60
2023/09/02 12:17:45;;;;;;;9.70;6.50;;;;;;;20.61;78.31;102229.28;20404723;28;20110;-60
2023/09/02 12:28:12;;;;;;;14.93;7.18;;;;;;;20.52;75.53;102235.00;20393073;29;20046;-60
2023/09/02 12:39:00;;;;;;;7.07;5.30;;;;;;;20.58;77.20;102224.19;20391061;29;20488;-60
2023/09/02 12:49:22;;;;;;;10.63;5.97;;;;;;;20.59;78.46;102219.75;20387955;29;20036;-60
2023/09/02 12:59:43;;;;;;;15.35;9.00;;;;;;;20.69;79.66;102221.84;20361557;29;20046;-60
2023/09/02 13:10:07;;;;;;;12.88;7.90;;;;;;;20.73;78.33;102206.78;20372894;29;20128;-60
2023/09/02 13:20:33;;;;;;;13.70;6.20;;;;;;;20.74;78.50;102200.56;20375185;29;20098;-60
2023/09/02 13:30:54;;;;;;;11.05;6.50;;;;;;;20.75;78.73;102197.88;20370125;29;20417;-60
2023/09/02 13:41:18;;;;;;;10.20;5.88;;;;;;;20.96;77.03;102188.91;20374738;29;20076;-60
2023/09/02 13:51:40;;;;;;;8.18;5.05;;;;;;;21.02;77.69;102185.97;20360994;29;20075;-60
2023/09/02 14:02:07;;;;;;;7.63;4.70;;;;;;;20.91;76.37;102184.78;20372790;29;20662;-60
2023/09/02 14:12:29;;;;;;;9.52;6.15;;;;;;;20.74;77.61;102183.03;20377993;29;20119;-60
2023/09/02 14:22:51;;;;;;;8.57;6.15;;;;;;;20.79;78.71;102183.63;20361829;29;20051;-61
2023/09/02 14:33:12;;;;;;;13.40;6.97;;;;;;;20.81;77.04;102178.28;20378609;29;20070;-61
2023/09/02 14:43:34;;;;;;;10.27;7.40;;;;;;;20.93;78.16;102189.03;20381729;29;20040;-60
2023/09/02 14:53:55;;;;;;;7.35;6.28;;;;;;;21.00;78.94;102206.25;20382243;29;20044;-60
2023/09/02 15:04:19;;;;;;;11.25;6.90;;;;;;;21.10;78.94;102221.59;20397613;28;20801;-60
2023/09/02 15:14:49;;;;;;;10.18;5.82;;;;;;;21.07;77.61;102232.25;20396934;29;20483;-60
2023/09/02 15:25:11;;;;;;;7.68;2.30;;;;;;;21.02;77.13;102238.63;20392579;29;20520;-60
2023/09/02 15:35:37;;;;;;;6.22;2.40;;;;;;;21.20;76.23;102246.50;20408807;29;20047;-60
2023/09/02 15:45:59;;;;;;;6.93;2.35;;;;;;;21.25;76.99;102252.38;20396409;29;20051;-60
2023/09/02 15:56:20;;;;;;;5.47;1.88;;;;;;;21.31;75.84;102283.69;20385145;29;20044;-60
2023/09/02 16:06:42;;;;;;;5.28;1.73;;;;;;;21.15;76.02;102288.88;20396012;29;20043;-60
2023/09/02 16:17:20;;;;;;;2.55;1.50;;;;;;;21.07;73.10;102295.47;20378269;29;20701;-67
2023/09/02 16:27:42;;;;;;;3.55;1.30;;;;;;;21.10;75.91;102311.13;20376168;29;20095;-60
2023/09/02 16:38:04;;;;;;;3.05;1.73;;;;;;;20.90;75.20;102326.06;20376775;28;20082;-60
2023/09/02 16:48:25;;;;;;;2.30;1.13;;;;;;;20.61;74.22;102342.41;20367929;29;20055;-60
2023/09/02 16:58:47;;;;;;;2.05;1.52;;;;;;;20.41;75.37;102342.50;20371769;29;20565;-60
2023/09/02 17:09:10;;;;;;;2.60;1.05;;;;;;;20.17;76.46;102358.50;20361863;29;20685;-60
2023/09/02 17:19:32;;;;;;;2.40;1.30;;;;;;;20.04;77.35;102368.72;20355479;28;20056;-61
2023/09/02 17:30:00;;;;;;;1.48;1.08;;;;;;;19.92;76.65;102364.03;20353854;29;20051;-60
2023/09/02 17:40:22;;;;;;;1.58;0.95;;;;;;;19.71;77.50;102370.19;20350125;29;20056;-60
2023/09/02 17:50:44;;;;;;;1.20;1.10;;;;;;;19.60;78.45;102372.44;20345533;29;20058;-60
2023/09/02 18:01:05;;;;;;;2.80;1.40;;;;;;;19.44;79.40;102368.75;20333895;29;20056;-60
2023/09/02 18:11:27;;;;;;;3.05;1.30;;;;;;;19.29;80.01;102367.59;20326104;29;20651;-59
2023/09/02 18:21:49;;;;;;;3.30;1.48;;;;;;;19.13;80.08;102365.66;20348219;28;20121;-60
2023/09/02 18:32:12;;;;;;;2.95;1.83;;;;;;;18.98;81.26;102385.50;20342308;29;20495;-60
2023/09/02 18:42:34;;;;;;;4.53;2.33;;;;;;;18.83;81.74;102394.81;20349251;29;20067;-60
2023/09/02 18:52:58;;;;;;;7.03;2.40;;;;;;;18.73;82.18;102398.69;20379028;29;20049;-61
2023/09/02 19:03:20;;;;;;;2.67;2.30;;;;;;;18.62;82.70;102406.16;20366043;29;20056;-60
2023/09/02 19:13:42;;;;;;;3.72;2.38;;;;;;;18.47;83.09;102419.84;20398704;29;20127;-60
2023/09/02 19:24:04;;;;;;;3.53;2.40;;;;;;;18.39;83.54;102434.09;20398260;29;20043;-60
2023/09/02 19:34:26;;;;;;;5.22;3.35;;;;;;;18.27;84.29;102443.28;20405098;28;20058;-59
2023/09/02 19:44:47;;;;;;;5.13;4.00;;;;;;;18.18;84.44;102461.09;20401303;29;20043;-60
2023/09/02 19:55:09;;;;;;;4.70;3.63;;;;;;;18.05;84.69;102484.25;20394592;29;20055;-60
2023/09/02 20:05:31;;;;;;;3.88;3.25;;;;;;;17.88;85.96;102479.56;20385703;29;20060;-60
2023/09/02 20:15:56;;;;;;;6.63;3.85;;;;;;;17.76;86.32;102510.56;20389459;29;20044;-60
2023/09/02 20:26:18;;;;;;;4.35;3.40;;;;;;;17.59;86.70;102510.25;20378366;29;20058;-60
2023/09/02 20:36:40;;;;;;;6.13;3.92;;;;;;;17.43;87.10;102507.22;20371768;29;20054;-60
2023/09/02 20:47:02;;;;;;;6.07;4.57;;;;;;;17.36;86.52;102518.78;20379247;29;20507;-60
2023/09/02 20:57:24;;;;;;;7.47;4.32;;;;;;;17.28;87.46;102528.63;20375727;29;20052;-60
2023/09/02 21:07:45;;;;;;;6.32;3.40;;;;;;;17.20;87.41;102540.22;20350624;29;20044;-60
2023/09/02 21:18:07;;;;;;;5.50;3.83;;;;;;;17.07;88.10;102522.28;20370593;29;20664;-60
2023/09/02 21:28:29;;;;;;;4.93;4.07;;;;;;;17.04;88.76;102552.91;20370674;29;20515;-61
2023/09/02 21:38:51;;;;;;;8.95;4.35;;;;;;;16.94;88.88;102565.38;20363917;28;20054;-60
2023/09/02 21:49:12;;;;;;;6.28;4.25;;;;;;;16.83;88.62;102575.28;20393042;29;20046;-61
2023/09/02 21:59:34;;;;;;;5.25;4.50;;;;;;;16.65;89.70;102569.69;20395809;29;20044;-60
2023/09/02 22:09:56;;;;;;;7.00;4.45;;;;;;;16.48;90.59;102569.31;20384962;29;20396;-60
2023/09/02 22:20:17;;;;;;;9.02;5.60;;;;;;;16.39;91.45;102575.59;20377620;29;20051;-60
2023/09/02 22:30:39;;;;;;;9.95;4.88;;;;;;;16.38;90.42;102579.13;20386198;29;20054;-60
2023/09/02 22:41:04;;;;;;;8.98;6.65;;;;;;;16.32;91.17;102576.66;20388747;28;20052;-60
2023/09/02 22:51:26;;;;;;;7.00;5.53;;;;;;;16.17;91.71;102586.66;20396431;28;20576;-61
2023/09/02 23:01:48;;;;;;;9.65;4.88;;;;;;;16.08;92.75;102595.53;20389907;29;20045;-60
2023/09/02 23:12:09;;;;;;;9.55;5.00;;;;;;;15.99;93.01;102606.22;20353567;29;20056;-60
2023/09/02 23:22:31;;;;;;;15.57;5.70;;;;;;;15.98;93.47;102592.31;20371874;29;20054;-61
2023/09/02 23:32:53;;;;;;;7.75;5.40;;;;;;;15.92;93.23;102604.66;20365068;29;20043;-60
2023/09/02 23:43:14;;;;;;;6.68;4.95;;;;;;;15.83;94.14;102604.84;20385077;29;20054;-60
2023/09/02 23:53:37;;;;;;;8.48;5.82;;;;;;;15.72;94.10;102612.06;20376609;29;20077;-61
